createdAt,value
2022-07-31T00:01:27.600Z,101297.19
2022-07-31T00:03:54.399Z,101289.50
2022-07-31T00:06:21.406Z,101280.63
2022-07-31T00:08:50.640Z,101284.50
2022-07-31T00:11:17.441Z,101278.69
2022-07-31T00:13:56.570Z,101281.38
2022-07-31T00:16:24.994Z,101279.38
2022-07-31T00:18:51.706Z,101287.66
2022-07-31T00:21:18.916Z,101282.00
2022-07-31T00:23:45.641Z,101282.16
2022-07-31T00:26:12.561Z,101276.31
2022-07-31T00:28:39.609Z,101284.88
2022-07-31T00:31:06.339Z,101268.06
2022-07-31T00:33:32.988Z,101271.34
2022-07-31T00:35:59.879Z,101265.22
2022-07-31T00:38:27.648Z,101266.53
2022-07-31T00:40:54.745Z,101259.41
2022-07-31T00:43:21.617Z,101259.16
2022-07-31T00:45:49.385Z,101259.69
2022-07-31T00:48:25.515Z,101256.31
2022-07-31T00:50:52.337Z,101253.75
2022-07-31T00:53:19.216Z,101248.63
2022-07-31T00:55:52.025Z,101255.38
2022-07-31T00:58:20.103Z,101246.41
2022-07-31T01:00:47.236Z,101256.81
2022-07-31T01:03:14.569Z,101249.78
2022-07-31T01:05:41.944Z,101255.06
2022-07-31T01:08:08.740Z,101248.81
2022-07-31T01:10:44.487Z,101245.13
2022-07-31T01:13:18.565Z,101251.84
2022-07-31T01:15:45.778Z,101253.38
2022-07-31T01:18:13.522Z,101248.69
2022-07-31T01:20:44.581Z,101246.97
2022-07-31T01:23:39.052Z,101250.13
2022-07-31T01:26:32.420Z,101253.28
2022-07-31T01:29:37.912Z,101243.03
2022-07-31T01:32:41.990Z,101248.03
2022-07-31T01:35:15.092Z,101244.59
2022-07-31T01:37:52.786Z,101240.38
2022-07-31T01:40:46.820Z,101241.66
2022-07-31T01:43:22.116Z,101240.97
2022-07-31T01:45:52.397Z,101248.22
2022-07-31T01:48:19.149Z,101240.91
2022-07-31T01:50:47.700Z,101243.56
2022-07-31T01:53:19.022Z,101246.09
2022-07-31T01:56:02.322Z,101240.16
2022-07-31T01:58:33.952Z,101238.31
2022-07-31T02:01:03.893Z,101235.31
2022-07-31T02:03:42.662Z,101232.19
2022-07-31T02:06:13.458Z,101232.47
2022-07-31T02:08:40.314Z,101224.38
2022-07-31T02:11:07.304Z,101229.25
2022-07-31T02:13:35.924Z,101214.75
2022-07-31T02:16:04.939Z,101214.03
2022-07-31T02:18:33.075Z,101218.19
2022-07-31T02:20:59.824Z,101214.06
2022-07-31T02:23:26.529Z,101202.63
2022-07-31T02:25:53.380Z,101214.97
2022-07-31T02:28:20.624Z,101209.94
2022-07-31T02:30:48.804Z,101208.50
2022-07-31T02:33:21.208Z,101205.34
2022-07-31T02:35:52.689Z,101203.81
2022-07-31T02:38:23.339Z,101201.41
2022-07-31T02:41:11.470Z,101195.88
2022-07-31T02:43:38.968Z,101207.06
2022-07-31T02:46:06.720Z,101205.63
2022-07-31T02:48:33.692Z,101196.72
2022-07-31T02:51:00.520Z,101196.13
2022-07-31T02:53:27.287Z,101198.56
2022-07-31T02:55:54.049Z,101193.31
2022-07-31T02:58:20.775Z,101199.13
2022-07-31T03:00:47.792Z,101193.31
2022-07-31T03:03:14.465Z,101195.72
2022-07-31T03:05:41.316Z,101195.56
2022-07-31T03:08:07.979Z,101193.84
2022-07-31T03:10:34.636Z,101193.31
2022-07-31T03:13:02.298Z,101198.56
2022-07-31T03:15:29.667Z,101197.66
2022-07-31T03:17:56.322Z,101198.97
2022-07-31T03:20:23.692Z,101198.69
2022-07-31T03:22:51.081Z,101202.38
2022-07-31T03:25:20.091Z,101194.88
2022-07-31T03:27:52.407Z,101203.25
2022-07-31T03:30:26.919Z,101198.28
2022-07-31T03:32:54.457Z,101192.59
2022-07-31T03:35:21.211Z,101196.28
2022-07-31T03:37:47.898Z,101200.22
2022-07-31T03:40:14.837Z,101189.00
2022-07-31T03:42:42.433Z,101194.13
2022-07-31T03:45:10.129Z,101175.22
2022-07-31T03:47:37.289Z,101187.00
2022-07-31T03:50:04.560Z,101187.09
2022-07-31T03:52:31.657Z,101190.69
2022-07-31T03:54:58.330Z,101190.38
2022-07-31T03:57:27.035Z,101200.69
2022-07-31T03:59:58.183Z,101199.81
2022-07-31T04:02:29.758Z,101198.56
2022-07-31T04:04:57.331Z,101197.13
2022-07-31T04:07:24.579Z,101201.34
2022-07-31T04:09:51.601Z,101194.97
2022-07-31T04:12:18.208Z,101199.38
2022-07-31T04:14:44.953Z,101201.09
2022-07-31T04:17:11.628Z,101207.75
2022-07-31T04:19:39.517Z,101204.78
2022-07-31T04:22:07.085Z,101206.75
2022-07-31T04:24:34.108Z,101198.25
2022-07-31T04:27:00.867Z,101200.38
2022-07-31T04:29:30.497Z,101206.06
2022-07-31T04:31:57.430Z,101207.19
2022-07-31T04:34:24.081Z,101207.34
2022-07-31T04:36:50.729Z,101203.09
2022-07-31T04:39:17.433Z,101202.38
2022-07-31T04:41:44.532Z,101192.88
2022-07-31T04:44:11.592Z,101202.97
2022-07-31T04:46:38.412Z,101202.53
2022-07-31T04:49:05.192Z,101202.94
2022-07-31T04:51:32.031Z,101210.75
2022-07-31T04:53:58.631Z,101211.28
2022-07-31T04:56:34.346Z,101211.59
2022-07-31T04:59:03.128Z,101215.31
2022-07-31T05:01:29.807Z,101215.75
2022-07-31T05:03:56.637Z,101218.84
2022-07-31T05:06:23.254Z,101204.78
2022-07-31T05:08:49.913Z,101207.06
2022-07-31T05:11:22.512Z,101210.06
2022-07-31T05:13:50.588Z,101208.91
2022-07-31T05:16:18.683Z,101210.91
2022-07-31T05:18:46.005Z,101207.91
2022-07-31T05:21:14.233Z,101217.44
2022-07-31T05:23:42.229Z,101213.34
2022-07-31T05:26:10.067Z,101213.88
2022-07-31T05:28:37.947Z,101219.72
2022-07-31T05:31:05.831Z,101225.25
2022-07-31T05:33:32.747Z,101217.88
2022-07-31T05:36:00.652Z,101218.41
2022-07-31T05:38:27.987Z,101215.31
2022-07-31T05:40:54.687Z,101214.03
2022-07-31T05:43:21.473Z,101212.03
2022-07-31T05:45:48.298Z,101214.59
2022-07-31T05:48:16.091Z,101209.78
2022-07-31T05:50:43.902Z,101213.88
2022-07-31T05:53:15.403Z,101213.31
2022-07-31T05:55:43.287Z,101214.16
2022-07-31T05:58:14.802Z,101215.56
2022-07-31T06:00:44.841Z,101213.53
2022-07-31T06:03:14.382Z,101206.44
2022-07-31T06:05:41.655Z,101208.88
2022-07-31T06:08:09.816Z,101217.28
2022-07-31T06:10:39.875Z,101219.69
2022-07-31T06:13:06.509Z,101215.56
2022-07-31T06:15:36.571Z,101213.69
2022-07-31T06:18:04.253Z,101213.69
2022-07-31T06:20:31.211Z,101202.75
2022-07-31T06:22:57.985Z,101197.34
2022-07-31T06:25:30.167Z,101206.31
2022-07-31T06:28:04.197Z,101208.19
2022-07-31T06:30:37.003Z,101227.91
2022-07-31T06:33:08.352Z,101214.31
2022-07-31T06:35:35.366Z,101215.84
2022-07-31T06:38:02.033Z,101211.19
2022-07-31T06:40:28.765Z,101215.00
2022-07-31T06:42:55.571Z,101217.81
2022-07-31T06:45:48.476Z,101213.00
2022-07-31T06:48:13.406Z,101213.00
2022-07-31T06:50:40.142Z,101219.69
2022-07-31T06:53:06.816Z,101214.00
2022-07-31T06:55:33.493Z,101211.28
2022-07-31T06:58:00.225Z,101212.88
2022-07-31T07:00:26.918Z,101220.25
2022-07-31T07:02:53.563Z,101214.47
2022-07-31T07:05:21.722Z,101221.84
2022-07-31T07:07:48.396Z,101213.31
2022-07-31T07:10:15.078Z,101211.78
2022-07-31T07:12:41.768Z,101222.41
2022-07-31T07:15:10.212Z,101218.03
2022-07-31T07:17:36.935Z,101213.78
2022-07-31T07:20:04.042Z,101222.41
2022-07-31T07:22:32.785Z,101215.56
2022-07-31T07:25:01.150Z,101222.97
2022-07-31T07:27:27.883Z,101207.34
2022-07-31T07:29:54.553Z,101218.16
2022-07-31T07:32:21.177Z,101217.41
2022-07-31T07:34:47.841Z,101212.75
2022-07-31T07:37:26.381Z,101207.94
2022-07-31T07:39:53.294Z,101207.06
2022-07-31T07:42:19.997Z,101207.66
2022-07-31T07:44:46.742Z,101200.69
2022-07-31T07:47:13.567Z,101191.78
2022-07-31T07:49:40.264Z,101192.59
2022-07-31T07:52:07.032Z,101192.88
2022-07-31T07:54:33.725Z,101189.59
2022-07-31T07:57:00.432Z,101188.63
2022-07-31T07:59:27.115Z,101192.59
2022-07-31T08:01:53.777Z,101186.50
2022-07-31T08:04:20.562Z,101191.75
2022-07-31T08:06:47.501Z,101191.72
2022-07-31T08:09:14.216Z,101191.88
2022-07-31T08:11:40.873Z,101186.78
2022-07-31T08:14:07.554Z,101188.03
2022-07-31T08:16:34.298Z,101182.69
2022-07-31T08:19:01.110Z,101184.66
2022-07-31T08:21:27.800Z,101187.81
2022-07-31T08:23:54.476Z,101184.94
2022-07-31T08:26:21.299Z,101186.91
2022-07-31T08:28:50.721Z,101197.13
2022-07-31T08:31:21.354Z,101199.81
2022-07-31T08:33:48.009Z,101196.25
2022-07-31T08:36:14.856Z,101194.59
2022-07-31T08:38:41.590Z,101197.28
2022-07-31T08:41:08.231Z,101194.72
2022-07-31T08:44:03.250Z,101196.28
2022-07-31T08:46:22.462Z,101200.38
2022-07-31T08:48:52.991Z,101198.81
2022-07-31T08:51:20.766Z,101191.69
2022-07-31T08:53:52.214Z,101187.88
2022-07-31T08:56:20.561Z,101182.03
2022-07-31T08:58:49.546Z,101187.19
2022-07-31T09:01:16.398Z,101187.78
2022-07-31T09:03:43.261Z,101183.50
2022-07-31T09:06:11.030Z,101184.94
2022-07-31T09:08:38.364Z,101184.06
2022-07-31T09:11:15.243Z,101177.22
2022-07-31T09:14:03.112Z,101176.50
2022-07-31T09:16:31.334Z,101166.81
2022-07-31T09:19:03.377Z,101168.66
2022-07-31T09:21:50.135Z,101168.59
2022-07-31T09:24:28.860Z,101178.88
2022-07-31T09:27:09.567Z,101180.91
2022-07-31T09:29:36.887Z,101181.59
2022-07-31T09:32:11.506Z,101185.25
2022-07-31T09:34:39.521Z,101177.41
2022-07-31T09:37:19.850Z,101177.16
2022-07-31T09:39:54.368Z,101177.81
2022-07-31T09:42:25.608Z,101175.97
2022-07-31T09:44:52.329Z,101175.69
2022-07-31T09:47:29.130Z,101174.28
2022-07-31T09:49:58.481Z,101168.84
2022-07-31T09:52:26.908Z,101161.25
2022-07-31T09:55:15.454Z,101162.22
2022-07-31T09:57:54.373Z,101169.44
2022-07-31T10:00:25.560Z,101170.16
2022-07-31T10:02:56.850Z,101160.88
2022-07-31T10:05:25.554Z,101161.19
2022-07-31T10:07:55.284Z,101151.91
2022-07-31T10:10:22.560Z,101170.81
2022-07-31T10:12:51.699Z,101159.56
2022-07-31T10:15:19.963Z,101156.72
2022-07-31T10:17:49.189Z,101157.28
2022-07-31T10:20:21.824Z,101152.25
2022-07-31T10:22:52.417Z,101147.75
2022-07-31T10:25:28.004Z,101147.25
2022-07-31T10:27:57.310Z,101148.41
2022-07-31T10:30:28.060Z,101145.94
2022-07-31T10:32:55.550Z,101140.22
2022-07-31T10:35:22.817Z,101145.06
2022-07-31T10:38:01.812Z,101142.09
2022-07-31T10:40:44.166Z,101133.22
2022-07-31T10:43:16.794Z,101136.47
2022-07-31T10:45:50.815Z,101144.38
2022-07-31T10:48:18.035Z,101136.75
2022-07-31T10:50:45.434Z,101127.78
2022-07-31T10:53:14.181Z,101127.38
2022-07-31T10:55:41.505Z,101127.06
2022-07-31T10:58:17.022Z,101134.41
2022-07-31T11:00:44.056Z,101132.16
2022-07-31T11:03:18.489Z,101134.91
2022-07-31T11:06:02.022Z,101139.47
2022-07-31T11:08:41.269Z,101137.56
2022-07-31T11:11:08.063Z,101130.94
2022-07-31T11:13:51.582Z,101135.31
2022-07-31T11:16:19.640Z,101128.72
2022-07-31T11:19:06.844Z,101124.22
2022-07-31T11:21:39.220Z,101132.78
2022-07-31T11:24:16.212Z,101122.94
2022-07-31T11:26:49.715Z,101126.28
2022-07-31T11:29:59.451Z,101127.75
2022-07-31T11:32:24.824Z,101123.72
2022-07-31T11:34:57.284Z,101125.41
2022-07-31T11:37:25.991Z,101120.53
2022-07-31T11:39:57.879Z,101119.66
2022-07-31T11:42:34.496Z,101115.13
2022-07-31T11:45:10.840Z,101115.47
2022-07-31T11:48:12.522Z,101106.34
2022-07-31T11:50:43.666Z,101104.78
2022-07-31T11:53:10.945Z,101109.75
2022-07-31T11:56:04.217Z,101106.84
2022-07-31T11:58:34.035Z,101104.88
2022-07-31T12:02:01.750Z,101105.28
2022-07-31T12:04:28.557Z,101100.88
2022-07-31T12:06:56.904Z,101096.66
2022-07-31T12:10:00.410Z,101093.66
2022-07-31T12:12:11.937Z,101085.03
2022-07-31T12:14:39.774Z,101090.31
2022-07-31T12:17:08.133Z,101092.50
2022-07-31T12:19:38.860Z,101094.19
2022-07-31T12:22:17.127Z,101092.69
2022-07-31T12:24:44.286Z,101091.00
2022-07-31T12:27:15.824Z,101092.16
2022-07-31T12:29:42.903Z,101084.00
2022-07-31T12:32:09.757Z,101082.16
2022-07-31T12:34:43.034Z,101080.13
2022-07-31T12:37:15.414Z,101080.47
2022-07-31T12:39:59.682Z,101087.59
2022-07-31T12:42:31.201Z,101082.16
2022-07-31T12:45:19.473Z,101076.06
2022-07-31T12:47:51.211Z,101072.34
2022-07-31T12:50:19.407Z,101068.59
2022-07-31T12:52:46.218Z,101072.00
2022-07-31T12:55:17.142Z,101076.75
2022-07-31T12:57:50.650Z,101065.75
2022-07-31T13:00:25.400Z,101064.03
2022-07-31T13:02:53.734Z,101057.75
2022-07-31T13:05:20.991Z,101067.78
2022-07-31T13:07:48.523Z,101040.28
2022-07-31T13:10:21.181Z,101061.97
2022-07-31T13:12:52.453Z,101069.28
2022-07-31T13:15:21.071Z,101051.34
2022-07-31T13:17:50.699Z,101049.63
2022-07-31T13:20:17.793Z,101051.34
2022-07-31T13:22:44.584Z,101048.78
2022-07-31T13:25:11.378Z,101038.94
2022-07-31T13:27:38.191Z,101042.16
2022-07-31T13:30:05.761Z,101039.09
2022-07-31T13:32:32.715Z,101041.97
2022-07-31T13:35:26.526Z,101037.72
2022-07-31T13:37:49.335Z,101028.59
2022-07-31T13:40:15.978Z,101037.75
2022-07-31T13:42:43.036Z,101036.59
2022-07-31T13:45:10.500Z,101025.19
2022-07-31T13:47:51.479Z,101033.66
2022-07-31T13:50:18.834Z,101033.66
2022-07-31T13:52:45.640Z,101014.84
2022-07-31T13:55:12.395Z,101024.50
2022-07-31T13:57:39.287Z,101023.84
2022-07-31T14:00:06.780Z,101023.00
2022-07-31T14:02:33.821Z,101024.88
2022-07-31T14:05:02.895Z,101019.09
2022-07-31T14:07:47.857Z,101016.91
2022-07-31T14:10:20.604Z,101017.22
2022-07-31T14:12:48.444Z,101029.94
2022-07-31T14:15:18.650Z,101012.16
2022-07-31T14:17:45.650Z,101007.56
2022-07-31T14:20:12.716Z,101007.91
2022-07-31T14:22:39.404Z,101001.72
2022-07-31T14:25:06.260Z,101001.31
2022-07-31T14:27:34.528Z,100997.16
2022-07-31T14:30:01.789Z,101008.31
2022-07-31T14:32:30.776Z,100995.94
2022-07-31T14:34:57.698Z,100982.72
2022-07-31T14:37:24.559Z,100996.81
2022-07-31T14:39:52.041Z,101006.31
2022-07-31T14:42:21.990Z,100993.09
2022-07-31T14:44:52.069Z,101011.44
2022-07-31T14:47:19.007Z,100988.56
2022-07-31T14:50:07.741Z,100978.31
2022-07-31T14:52:32.972Z,100973.66
2022-07-31T14:55:02.658Z,100969.00
2022-07-31T14:57:31.608Z,100973.16
2022-07-31T14:59:58.718Z,100979.19
2022-07-31T15:02:30.875Z,100969.16
2022-07-31T15:04:58.438Z,100965.13
2022-07-31T15:07:49.030Z,100965.31
2022-07-31T15:10:16.233Z,100974.16
2022-07-31T15:12:42.991Z,100976.50
2022-07-31T15:15:10.515Z,100987.94
2022-07-31T15:17:38.675Z,100993.03
2022-07-31T15:20:09.499Z,100981.34
2022-07-31T15:22:36.503Z,100965.88
2022-07-31T15:25:03.430Z,100966.41
2022-07-31T15:27:30.062Z,100956.53
2022-07-31T15:30:03.838Z,100955.84
2022-07-31T15:32:35.676Z,100953.97
2022-07-31T15:35:02.433Z,100956.97
2022-07-31T15:37:30.323Z,100960.59
2022-07-31T15:40:03.044Z,100963.81
2022-07-31T15:42:43.315Z,100951.84
2022-07-31T15:45:12.763Z,100951.19
2022-07-31T15:47:40.116Z,100952.72
2022-07-31T15:50:07.827Z,100948.53
2022-07-31T15:52:34.624Z,100954.97
2022-07-31T15:55:01.758Z,100949.53
2022-07-31T15:57:28.741Z,100954.09
2022-07-31T15:59:55.518Z,100948.75
2022-07-31T16:02:23.821Z,100939.69
2022-07-31T16:04:54.798Z,100947.63
2022-07-31T16:08:30.686Z,100944.97
2022-07-31T16:10:17.635Z,100949.13
2022-07-31T16:12:46.086Z,100937.94
2022-07-31T16:15:13.476Z,100947.81
2022-07-31T16:17:40.808Z,100933.94
2022-07-31T16:20:12.966Z,100929.69
2022-07-31T16:22:54.021Z,100924.25
2022-07-31T16:25:22.263Z,100924.63
2022-07-31T16:27:49.161Z,100928.38
2022-07-31T16:30:16.871Z,100918.34
2022-07-31T16:32:44.129Z,100918.69
2022-07-31T16:35:12.022Z,100919.91
2022-07-31T16:37:51.711Z,100920.25
2022-07-31T16:40:30.962Z,100918.56
2022-07-31T16:43:46.742Z,100914.97
2022-07-31T16:45:50.710Z,100906.34
2022-07-31T16:48:17.864Z,100919.22
2022-07-31T16:50:44.681Z,100916.66
2022-07-31T16:54:13.940Z,100923.16
2022-07-31T16:56:02.240Z,100989.13
2022-07-31T16:58:29.390Z,100991.78
2022-07-31T17:00:56.653Z,100988.44
2022-07-31T17:03:58.950Z,100978.34
2022-07-31T17:06:12.101Z,100981.59
2022-07-31T17:08:38.854Z,100980.47
2022-07-31T17:11:05.709Z,100949.22
2022-07-31T17:13:32.627Z,100957.09
2022-07-31T17:15:59.679Z,100953.00
2022-07-31T17:18:26.619Z,100946.53
2022-07-31T17:20:55.766Z,100953.72
2022-07-31T17:23:43.522Z,100960.63
2022-07-31T17:26:11.245Z,100947.38
2022-07-31T17:28:51.975Z,100950.91
2022-07-31T17:31:19.092Z,100933.03
2022-07-31T17:33:54.917Z,100932.88
2022-07-31T17:36:28.126Z,100947.69
2022-07-31T17:38:54.837Z,100960.03
2022-07-31T17:41:25.156Z,100967.97
2022-07-31T17:43:55.949Z,100981.34
2022-07-31T17:46:36.464Z,100977.94
2022-07-31T17:49:19.662Z,100987.81
2022-07-31T17:51:58.672Z,100979.09
2022-07-31T17:54:31.067Z,100978.25
2022-07-31T17:56:58.175Z,100972.59
2022-07-31T17:59:25.414Z,100974.22
2022-07-31T18:01:53.313Z,100974.75
2022-07-31T18:04:21.394Z,100973.28
2022-07-31T18:06:54.099Z,100970.16
2022-07-31T18:09:23.560Z,100979.38
2022-07-31T18:11:52.028Z,100985.16
2022-07-31T18:14:19.417Z,100992.06
2022-07-31T18:16:47.169Z,100981.75
2022-07-31T18:19:14.583Z,100995.94
2022-07-31T18:21:41.614Z,100992.41
2022-07-31T18:24:08.545Z,100991.41
2022-07-31T18:26:38.034Z,100989.69
2022-07-31T18:29:05.225Z,101001.03
2022-07-31T18:31:35.385Z,100998.56
2022-07-31T18:34:05.253Z,101007.00
2022-07-31T18:36:32.912Z,101003.59
2022-07-31T18:38:59.812Z,101010.53
2022-07-31T18:41:26.684Z,101013.53
2022-07-31T18:43:53.816Z,101012.91
2022-07-31T18:46:20.771Z,101013.91
2022-07-31T18:48:53.120Z,101023.47
2022-07-31T18:51:23.235Z,101019.09
2022-07-31T18:53:52.154Z,101031.28
2022-07-31T18:56:22.676Z,101026.66
2022-07-31T18:58:49.433Z,101026.66
2022-07-31T19:01:16.681Z,101019.13
2022-07-31T19:03:43.487Z,101015.06
2022-07-31T19:06:11.719Z,101019.13
2022-07-31T19:08:39.305Z,101030.09
2022-07-31T19:11:06.397Z,101029.22
2022-07-31T19:13:33.246Z,101033.63
2022-07-31T19:15:59.986Z,101029.69
2022-07-31T19:18:28.820Z,101037.25
2022-07-31T19:21:17.918Z,101042.06
2022-07-31T19:23:47.489Z,101031.44
2022-07-31T19:26:14.488Z,101039.47
2022-07-31T19:28:43.596Z,101038.53
2022-07-31T19:31:11.289Z,101034.97
2022-07-31T19:33:38.136Z,101042.94
2022-07-31T19:36:05.823Z,101040.44
2022-07-31T19:38:33.481Z,101046.81
2022-07-31T19:41:01.667Z,101048.53
2022-07-31T19:43:28.993Z,101051.75
2022-07-31T19:46:10.433Z,101052.22
2022-07-31T19:48:44.382Z,101042.81
2022-07-31T19:51:12.581Z,101050.06
2022-07-31T19:53:40.285Z,101047.69
2022-07-31T19:56:07.499Z,101049.66
2022-07-31T19:58:35.559Z,101054.91
2022-07-31T20:01:04.243Z,101063.41
2022-07-31T20:03:31.209Z,101064.56
2022-07-31T20:05:58.341Z,101063.03
2022-07-31T20:08:25.241Z,101070.13
2022-07-31T20:10:52.409Z,101063.47
2022-07-31T20:13:19.267Z,101066.78
2022-07-31T20:15:50.661Z,101070.56
2022-07-31T20:18:25.197Z,101077.38
2022-07-31T20:21:01.865Z,101077.81
2022-07-31T20:23:28.533Z,101078.66
2022-07-31T20:25:55.195Z,101078.25
2022-07-31T20:28:22.004Z,101090.59
2022-07-31T20:30:49.796Z,101084.81
2022-07-31T20:33:16.604Z,101086.94
2022-07-31T20:35:49.245Z,101085.66
2022-07-31T20:38:25.909Z,101082.25
2022-07-31T20:40:55.713Z,101087.34
2022-07-31T20:43:29.402Z,101075.72
2022-07-31T20:45:57.873Z,101080.94
2022-07-31T20:48:31.444Z,101080.53
2022-07-31T20:51:00.061Z,101074.88
2022-07-31T20:53:26.956Z,101085.94
2022-07-31T20:55:53.689Z,101085.78
2022-07-31T20:58:22.228Z,101089.03
2022-07-31T21:00:50.150Z,101091.19
2022-07-31T21:03:17.448Z,101087.94
2022-07-31T21:05:45.078Z,101088.94
2022-07-31T21:08:12.252Z,101085.53
2022-07-31T21:10:39.173Z,101095.22
2022-07-31T21:13:05.788Z,101094.94
2022-07-31T21:15:42.579Z,101091.81
2022-07-31T21:18:15.050Z,101092.31
2022-07-31T21:20:49.684Z,101098.75
2022-07-31T21:23:23.343Z,101102.16
2022-07-31T21:25:55.082Z,101103.69
2022-07-31T21:28:22.764Z,101103.16
2022-07-31T21:30:50.224Z,101106.31
2022-07-31T21:33:18.354Z,101103.59
2022-07-31T21:35:46.121Z,101103.28
2022-07-31T21:38:15.320Z,101107.69
2022-07-31T21:40:46.117Z,101102.63
2022-07-31T21:43:16.685Z,101111.53
2022-07-31T21:45:55.065Z,101112.81
2022-07-31T21:48:25.972Z,101109.69
2022-07-31T21:50:53.204Z,101105.00
2022-07-31T21:53:21.985Z,101108.69
2022-07-31T21:55:49.190Z,101111.38
2022-07-31T21:58:16.171Z,101109.41
2022-07-31T22:00:43.553Z,101111.97
2022-07-31T22:03:11.883Z,101113.41
2022-07-31T22:05:58.518Z,101107.44
2022-07-31T22:08:25.653Z,101114.09
2022-07-31T22:10:53.040Z,101125.59
2022-07-31T22:13:20.486Z,101117.78
2022-07-31T22:15:55.585Z,101120.06
2022-07-31T22:18:32.889Z,101114.09
2022-07-31T22:21:00.592Z,101126.72
2022-07-31T22:23:28.004Z,101119.94
2022-07-31T22:25:55.187Z,101113.81
2022-07-31T22:28:22.736Z,101115.13
2022-07-31T22:30:49.827Z,101131.16
2022-07-31T22:33:16.771Z,101121.41
2022-07-31T22:35:43.769Z,101131.03
2022-07-31T22:38:13.612Z,101137.56
2022-07-31T22:40:44.074Z,101121.69
2022-07-31T22:44:10.623Z,101117.88
2022-07-31T22:46:00.136Z,101122.84
2022-07-31T22:48:28.124Z,101121.09
2022-07-31T22:50:56.731Z,101116.88
2022-07-31T22:53:24.369Z,101124.53
2022-07-31T22:55:54.269Z,101123.81
2022-07-31T22:58:21.608Z,101126.50
2022-07-31T23:00:50.279Z,101140.41
2022-07-31T23:03:17.132Z,101131.31
2022-07-31T23:06:05.258Z,101127.66
2022-07-31T23:08:30.602Z,101128.19
2022-07-31T23:10:57.256Z,101121.53
2022-07-31T23:13:23.918Z,101131.03
2022-07-31T23:15:50.745Z,101134.75
2022-07-31T23:18:17.500Z,101136.84
2022-07-31T23:20:44.225Z,101129.91
2022-07-31T23:23:10.872Z,101135.16
2022-07-31T23:25:37.531Z,101136.16
2022-07-31T23:28:04.237Z,101132.16
2022-07-31T23:30:31.018Z,101133.59
2022-07-31T23:32:57.650Z,101137.72
2022-07-31T23:35:24.330Z,101128.06
2022-07-31T23:37:51.048Z,101141.53
2022-07-31T23:40:17.758Z,101138.41
2022-07-31T23:42:44.529Z,101130.06
2022-07-31T23:45:15.506Z,101140.09
2022-07-31T23:47:45.558Z,101134.44
2022-07-31T23:50:13.516Z,101122.97
2022-07-31T23:52:40.490Z,101126.94
2022-07-31T23:55:07.492Z,101134.69
2022-07-31T23:57:36.240Z,101130.16
